createdAt,value
2022-07-29T00:00:21.659Z,69.76
2022-07-29T00:03:24.585Z,69.71
2022-07-29T00:06:27.352Z,69.61
2022-07-29T00:09:30.314Z,69.33
2022-07-29T00:12:34.398Z,69.47
2022-07-29T00:15:37.368Z,69.61
2022-07-29T00:18:40.366Z,70.05
2022-07-29T00:21:43.074Z,70.25
2022-07-29T00:24:45.895Z,70.63
2022-07-29T00:27:49.996Z,70.86
2022-07-29T00:30:53.754Z,71.19
2022-07-29T00:33:56.734Z,71.71
2022-07-29T00:36:58.521Z,72.11
2022-07-29T00:40:01.582Z,72.71
2022-07-29T00:43:05.663Z,73.22
2022-07-29T00:46:08.712Z,73.44
2022-07-29T00:49:11.360Z,73.34
2022-07-29T00:52:16.829Z,73.18
2022-07-29T00:55:20.129Z,72.76
2022-07-29T00:58:24.613Z,72.50
2022-07-29T01:01:27.318Z,72.35
2022-07-29T01:04:30.725Z,72.08
2022-07-29T01:07:34.457Z,72.57
2022-07-29T01:10:38.910Z,72.87
2022-07-29T01:13:43.406Z,73.25
2022-07-29T01:16:52.776Z,73.68
2022-07-29T01:20:02.238Z,73.64
2022-07-29T01:23:20.013Z,73.58
2022-07-29T01:26:35.704Z,73.66
2022-07-29T01:29:44.049Z,74.17
2022-07-29T01:32:52.583Z,74.47
2022-07-29T01:35:55.210Z,74.31
2022-07-29T01:39:02.941Z,74.19
2022-07-29T01:42:12.845Z,74.05
2022-07-29T01:45:19.751Z,73.78
2022-07-29T01:48:25.407Z,73.57
2022-07-29T01:51:33.020Z,73.20
2022-07-29T01:54:39.807Z,73.16
2022-07-29T01:57:45.407Z,73.20
2022-07-29T02:00:50.619Z,72.73
2022-07-29T02:03:55.571Z,72.88
2022-07-29T02:07:01.851Z,73.50
2022-07-29T02:10:06.026Z,73.64
2022-07-29T02:13:09.646Z,73.38
2022-07-29T02:16:14.259Z,73.76
2022-07-29T02:19:19.961Z,73.19
2022-07-29T02:22:23.921Z,73.56
2022-07-29T02:25:37.452Z,73.58
2022-07-29T02:28:41.206Z,73.31
2022-07-29T02:31:48.048Z,73.25
2022-07-29T02:34:51.277Z,72.68
2022-07-29T02:38:07.703Z,72.17
2022-07-29T02:41:13.392Z,71.84
2022-07-29T02:44:17.892Z,71.67
2022-07-29T02:47:25.428Z,71.90
2022-07-29T02:50:32.429Z,72.50
2022-07-29T02:53:35.996Z,72.71
2022-07-29T02:56:40.257Z,73.19
2022-07-29T02:59:44.192Z,73.33
2022-07-29T03:02:53.046Z,74.55
2022-07-29T03:05:57.429Z,75.17
2022-07-29T03:09:01.089Z,75.77
2022-07-29T03:12:06.632Z,75.63
2022-07-29T03:15:10.247Z,75.76
2022-07-29T03:18:14.435Z,76.02
2022-07-29T03:21:17.055Z,75.91
2022-07-29T03:24:30.636Z,75.44
2022-07-29T03:27:33.260Z,76.49
2022-07-29T03:30:36.076Z,75.77
2022-07-29T03:33:42.847Z,75.76
2022-07-29T03:36:45.532Z,75.88
2022-07-29T03:39:48.616Z,75.72
2022-07-29T03:42:53.156Z,75.70
2022-07-29T03:45:57.415Z,76.37
2022-07-29T03:49:02.897Z,76.11
2022-07-29T03:52:06.797Z,76.01
2022-07-29T03:55:10.922Z,76.01
2022-07-29T03:58:14.945Z,75.94
2022-07-29T04:01:19.402Z,76.13
2022-07-29T04:04:23.755Z,75.99
2022-07-29T04:07:26.682Z,76.08
2022-07-29T04:10:31.686Z,75.83
2022-07-29T04:13:37.597Z,75.38
2022-07-29T04:16:41.067Z,75.31
2022-07-29T04:19:45.020Z,74.78
2022-07-29T04:22:47.803Z,74.45
2022-07-29T04:25:50.443Z,74.60
2022-07-29T04:28:53.255Z,74.25
2022-07-29T04:31:55.934Z,73.87
2022-07-29T04:35:00.091Z,73.69
2022-07-29T04:38:03.158Z,73.61
2022-07-29T04:41:05.856Z,73.13
2022-07-29T04:44:09.258Z,73.66
2022-07-29T04:47:12.113Z,72.64
2022-07-29T04:50:16.223Z,72.19
2022-07-29T04:53:18.925Z,71.82
2022-07-29T04:56:21.734Z,71.43
2022-07-29T04:59:25.876Z,71.31
2022-07-29T05:02:28.560Z,70.72
2022-07-29T05:05:32.736Z,69.82
2022-07-29T05:08:35.451Z,69.30
2022-07-29T05:11:38.180Z,68.98
2022-07-29T05:14:40.977Z,68.45
2022-07-29T05:17:44.052Z,67.81
2022-07-29T05:20:47.994Z,66.88
2022-07-29T05:23:52.187Z,65.30
2022-07-29T05:26:54.912Z,64.95
2022-07-29T05:29:57.566Z,64.60
2022-07-29T05:33:00.219Z,63.23
2022-07-29T05:36:06.559Z,61.83
2022-07-29T05:39:09.377Z,60.89
2022-07-29T05:42:12.234Z,59.81
2022-07-29T05:45:14.850Z,58.75
2022-07-29T05:48:17.381Z,58.21
2022-07-29T05:51:21.662Z,57.44
2022-07-29T05:54:24.703Z,57.03
2022-07-29T05:57:27.158Z,56.17
2022-07-29T06:00:31.162Z,54.81
2022-07-29T06:03:33.937Z,54.19
2022-07-29T06:06:37.970Z,53.67
2022-07-29T06:09:40.735Z,52.57
2022-07-29T06:12:43.440Z,51.97
2022-07-29T06:15:46.274Z,51.50
2022-07-29T06:18:49.186Z,50.33
2022-07-29T06:21:53.063Z,49.42
2022-07-29T06:24:55.829Z,49.05
2022-07-29T06:27:58.827Z,47.49
2022-07-29T06:31:01.940Z,47.11
2022-07-29T06:34:04.924Z,46.43
2022-07-29T06:37:15.362Z,45.64
2022-07-29T06:40:36.116Z,45.61
2022-07-29T06:43:50.285Z,45.87
2022-07-29T06:46:54.143Z,46.08
2022-07-29T06:49:56.675Z,45.85
2022-07-29T06:53:00.764Z,46.05
2022-07-29T06:56:04.509Z,46.12
2022-07-29T06:59:07.678Z,46.19
2022-07-29T07:02:10.549Z,46.70
2022-07-29T07:05:13.350Z,47.00
2022-07-29T07:08:17.823Z,45.68
2022-07-29T07:11:20.500Z,44.76
2022-07-29T07:14:23.175Z,43.91
2022-07-29T07:17:26.222Z,44.72
2022-07-29T07:20:29.098Z,44.77
2022-07-29T07:23:33.280Z,44.66
2022-07-29T07:26:36.223Z,45.18
2022-07-29T07:29:44.247Z,44.21
2022-07-29T07:32:47.153Z,44.47
2022-07-29T07:35:49.783Z,44.67
2022-07-29T07:38:53.932Z,45.25
2022-07-29T07:41:56.787Z,45.55
2022-07-29T07:45:13.162Z,44.94
2022-07-29T07:48:16.524Z,45.21
2022-07-29T07:51:19.172Z,44.31
2022-07-29T07:54:23.147Z,43.70
2022-07-29T07:57:25.977Z,44.49
2022-07-29T08:00:28.854Z,44.62
2022-07-29T08:03:31.609Z,45.20
2022-07-29T08:06:35.863Z,44.91
2022-07-29T08:09:39.973Z,44.06
2022-07-29T08:12:42.860Z,43.59
2022-07-29T08:15:47.056Z,44.32
2022-07-29T08:18:49.903Z,44.66
2022-07-29T08:21:54.969Z,45.80
2022-07-29T08:24:59.261Z,44.76
2022-07-29T08:28:02.013Z,45.65
2022-07-29T08:31:04.874Z,45.50
2022-07-29T08:34:08.268Z,46.09
2022-07-29T08:37:11.225Z,45.38
2022-07-29T08:40:16.480Z,44.39
2022-07-29T08:43:19.348Z,45.36
2022-07-29T08:46:22.760Z,45.25
2022-07-29T08:49:25.641Z,44.74
2022-07-29T08:52:28.836Z,44.61
2022-07-29T08:55:33.480Z,44.18
2022-07-29T08:58:36.850Z,44.01
2022-07-29T09:01:45.128Z,43.12
2022-07-29T09:04:48.523Z,43.29
2022-07-29T09:07:51.882Z,43.62
2022-07-29T09:10:57.109Z,43.27
2022-07-29T09:13:59.697Z,42.49
2022-07-29T09:17:02.586Z,41.79
2022-07-29T09:20:11.295Z,40.71
2022-07-29T09:23:14.343Z,40.26
2022-07-29T09:26:29.522Z,38.12
2022-07-29T09:29:36.129Z,36.68
2022-07-29T09:32:56.984Z,36.79
2022-07-29T09:36:06.343Z,36.39
2022-07-29T09:39:09.116Z,36.24
2022-07-29T09:42:14.069Z,35.88
2022-07-29T09:45:29.704Z,35.23
2022-07-29T09:48:32.354Z,34.37
2022-07-29T09:51:38.255Z,33.54
2022-07-29T09:54:41.669Z,33.04
2022-07-29T09:57:46.310Z,32.67
2022-07-29T10:00:50.646Z,32.62
2022-07-29T10:03:53.880Z,32.79
2022-07-29T10:07:04.694Z,33.58
2022-07-29T10:10:08.585Z,32.61
2022-07-29T10:13:16.001Z,31.19
2022-07-29T10:16:19.749Z,30.48
2022-07-29T10:19:22.434Z,31.06
2022-07-29T10:22:50.812Z,31.47
2022-07-29T10:25:48.324Z,33.35
2022-07-29T10:28:52.281Z,35.53
2022-07-29T10:32:04.696Z,37.09
2022-07-29T10:35:29.171Z,37.28
2022-07-29T10:38:45.694Z,37.37
2022-07-29T10:42:09.645Z,39.99
2022-07-29T10:45:19.169Z,44.81
2022-07-29T10:48:23.609Z,50.15
2022-07-29T10:51:27.314Z,52.83
2022-07-29T10:54:46.069Z,57.33
2022-07-29T10:58:13.641Z,64.34
2022-07-29T11:05:02.282Z,73.96
2022-07-29T11:08:28.102Z,75.18
2022-07-29T11:11:34.928Z,75.70
2022-07-29T11:14:58.987Z,76.41
2022-07-29T11:18:15.015Z,80.74
2022-07-29T11:21:53.866Z,82.87
2022-07-29T11:25:16.794Z,84.40
2022-07-29T11:28:22.404Z,85.47
2022-07-29T11:31:40.356Z,82.43
2022-07-29T11:34:44.430Z,78.68
2022-07-29T11:37:52.811Z,78.15
2022-07-29T11:41:23.585Z,75.02
2022-07-29T11:44:58.845Z,73.82
2022-07-29T11:48:28.542Z,71.12
2022-07-29T11:51:32.713Z,72.25
2022-07-29T11:54:57.242Z,70.70
2022-07-29T11:58:03.908Z,70.46
2022-07-29T12:01:07.283Z,68.50
2022-07-29T12:04:10.456Z,68.42
2022-07-29T12:07:15.326Z,65.91
2022-07-29T12:10:20.178Z,64.70
2022-07-29T12:13:40.991Z,59.11
2022-07-29T12:16:43.907Z,57.75
2022-07-29T12:19:46.806Z,53.03
2022-07-29T12:22:54.402Z,51.49
2022-07-29T12:26:00.194Z,52.20
2022-07-29T12:29:03.196Z,51.05
2022-07-29T12:32:14.377Z,50.29
2022-07-29T12:35:20.142Z,50.09
2022-07-29T12:38:24.433Z,50.94
2022-07-29T12:41:27.144Z,52.35
2022-07-29T12:44:48.421Z,53.22
2022-07-29T12:47:54.612Z,55.43
2022-07-29T12:50:59.172Z,57.36
2022-07-29T12:54:08.984Z,59.75
2022-07-29T12:57:19.993Z,60.17
2022-07-29T13:00:25.445Z,59.73
2022-07-29T13:03:28.303Z,60.47
2022-07-29T13:06:32.905Z,59.00
2022-07-29T13:09:41.330Z,60.17
2022-07-29T13:13:03.310Z,64.34
2022-07-29T13:16:10.158Z,64.92
2022-07-29T13:19:13.578Z,66.78
2022-07-29T13:22:17.519Z,69.86
2022-07-29T13:25:27.603Z,70.22
2022-07-29T13:28:30.369Z,68.10
2022-07-29T13:31:32.975Z,69.63
2022-07-29T13:34:35.606Z,71.88
2022-07-29T13:37:39.386Z,76.69
2022-07-29T13:40:44.703Z,77.25
2022-07-29T13:43:47.618Z,76.69
2022-07-29T13:46:53.007Z,76.83
2022-07-29T13:49:55.667Z,75.45
2022-07-29T13:52:58.618Z,72.48
2022-07-29T13:56:02.695Z,64.63
2022-07-29T13:59:05.414Z,61.02
2022-07-29T14:02:08.588Z,58.42
2022-07-29T14:05:11.766Z,54.29
2022-07-29T14:08:14.634Z,53.07
2022-07-29T14:11:18.595Z,50.18
2022-07-29T14:14:21.727Z,52.09
2022-07-29T14:17:25.141Z,51.27
2022-07-29T14:20:29.388Z,49.66
2022-07-29T14:23:32.330Z,50.84
2022-07-29T14:26:36.328Z,50.60
2022-07-29T14:29:39.403Z,49.30
2022-07-29T14:32:42.174Z,49.12
2022-07-29T14:35:44.792Z,47.99
2022-07-29T14:38:47.738Z,47.85
2022-07-29T14:41:52.025Z,49.85
2022-07-29T14:44:54.750Z,49.02
2022-07-29T14:47:58.347Z,49.15
2022-07-29T14:51:04.759Z,48.71
2022-07-29T14:54:07.680Z,49.31
2022-07-29T14:57:11.801Z,49.46
2022-07-29T15:00:15.039Z,48.21
2022-07-29T15:03:24.277Z,47.35
2022-07-29T15:06:27.381Z,49.11
2022-07-29T15:09:30.331Z,46.23
2022-07-29T15:12:34.553Z,49.68
2022-07-29T15:15:37.244Z,49.12
2022-07-29T15:18:39.865Z,46.29
2022-07-29T15:21:48.560Z,46.52
2022-07-29T15:25:02.155Z,46.46
2022-07-29T15:28:07.946Z,45.43
2022-07-29T15:31:11.278Z,48.23
2022-07-29T15:34:14.242Z,50.13
2022-07-29T15:37:17.034Z,52.31
2022-07-29T15:40:19.814Z,53.20
2022-07-29T15:43:23.849Z,52.70
2022-07-29T15:46:46.882Z,52.78
2022-07-29T15:49:49.994Z,50.61
2022-07-29T15:52:52.834Z,52.95
2022-07-29T15:55:55.495Z,53.64
2022-07-29T15:58:59.859Z,52.99
2022-07-29T16:02:03.793Z,53.61
2022-07-29T16:05:09.380Z,52.81
2022-07-29T16:08:12.329Z,54.95
2022-07-29T16:11:14.816Z,53.28
2022-07-29T16:14:19.194Z,52.79
2022-07-29T16:17:22.048Z,53.20
2022-07-29T16:20:24.896Z,50.59
2022-07-29T16:23:27.616Z,50.36
2022-07-29T16:26:30.235Z,50.89
2022-07-29T16:29:34.309Z,51.53
2022-07-29T16:32:36.977Z,51.96
2022-07-29T16:35:40.481Z,51.44
2022-07-29T16:38:47.212Z,53.19
2022-07-29T16:41:50.393Z,54.08
2022-07-29T16:44:54.707Z,55.34
2022-07-29T16:48:01.013Z,56.38
2022-07-29T16:51:04.570Z,57.12
2022-07-29T16:54:08.614Z,58.31
2022-07-29T16:57:11.808Z,58.58
2022-07-29T17:00:17.839Z,57.92
2022-07-29T17:03:20.533Z,57.87
2022-07-29T17:06:23.104Z,56.33
2022-07-29T17:09:26.015Z,55.04
2022-07-29T17:12:28.717Z,54.25
2022-07-29T17:15:32.628Z,51.92
2022-07-29T17:18:39.443Z,49.77
2022-07-29T17:21:46.254Z,49.02
2022-07-29T17:24:51.802Z,48.78
2022-07-29T17:28:00.608Z,47.59
2022-07-29T17:31:05.206Z,47.01
2022-07-29T17:34:08.733Z,48.38
2022-07-29T17:37:13.024Z,47.71
2022-07-29T17:40:15.792Z,48.06
2022-07-29T17:43:18.585Z,47.90
2022-07-29T17:46:24.748Z,46.57
2022-07-29T17:49:28.193Z,46.44
2022-07-29T17:52:31.158Z,46.72
2022-07-29T17:55:33.763Z,46.60
2022-07-29T17:58:36.350Z,46.96
2022-07-29T18:01:41.384Z,47.10
2022-07-29T18:04:44.073Z,47.99
2022-07-29T18:07:46.995Z,47.44
2022-07-29T18:10:49.693Z,48.70
2022-07-29T18:13:52.302Z,49.26
2022-07-29T18:16:56.686Z,49.18
2022-07-29T18:19:59.504Z,49.71
2022-07-29T18:23:02.369Z,50.63
2022-07-29T18:26:05.463Z,50.86
2022-07-29T18:29:08.007Z,53.92
2022-07-29T18:32:14.570Z,56.03
2022-07-29T18:35:17.663Z,58.24
2022-07-29T18:38:21.856Z,59.88
2022-07-29T18:41:24.782Z,58.57
2022-07-29T18:44:27.797Z,59.79
2022-07-29T18:47:32.480Z,63.12
2022-07-29T18:50:35.808Z,63.81
2022-07-29T18:53:38.689Z,63.41
2022-07-29T18:56:41.224Z,62.20
2022-07-29T18:59:43.930Z,62.99
2022-07-29T19:02:48.081Z,63.21
2022-07-29T19:05:51.425Z,63.92
2022-07-29T19:08:54.232Z,65.04
2022-07-29T19:12:01.861Z,66.18
2022-07-29T19:15:07.568Z,67.20
2022-07-29T19:18:13.243Z,67.08
2022-07-29T19:21:16.012Z,67.31
2022-07-29T19:24:20.317Z,66.07
2022-07-29T19:27:23.247Z,66.54
2022-07-29T19:30:25.721Z,66.34
2022-07-29T19:33:29.902Z,65.37
2022-07-29T19:36:32.596Z,64.54
2022-07-29T19:39:35.734Z,64.24
2022-07-29T19:42:38.668Z,64.17
2022-07-29T19:45:41.821Z,64.32
2022-07-29T19:48:46.561Z,64.44
2022-07-29T19:51:49.457Z,64.85
2022-07-29T19:54:52.110Z,65.63
2022-07-29T19:57:55.269Z,66.24
2022-07-29T20:00:57.924Z,66.80
2022-07-29T20:04:01.946Z,67.94
2022-07-29T20:07:04.651Z,68.43
2022-07-29T20:10:09.874Z,68.30
2022-07-29T20:13:12.949Z,69.42
2022-07-29T20:16:15.702Z,69.82
2022-07-29T20:19:19.766Z,69.88
2022-07-29T20:22:22.541Z,70.88
2022-07-29T20:25:25.337Z,71.52
2022-07-29T20:28:28.020Z,72.54
2022-07-29T20:31:31.969Z,70.65
2022-07-29T20:34:36.143Z,71.06
2022-07-29T20:37:52.564Z,69.82
2022-07-29T20:40:59.603Z,68.89
2022-07-29T20:44:02.491Z,67.64
2022-07-29T20:47:05.381Z,65.31
2022-07-29T20:50:10.950Z,66.65
2022-07-29T20:53:13.632Z,68.28
2022-07-29T20:56:16.472Z,70.22
2022-07-29T20:59:19.101Z,69.95
2022-07-29T21:02:21.985Z,70.40
2022-07-29T21:05:26.400Z,72.23
2022-07-29T21:08:29.507Z,72.34
2022-07-29T21:11:43.612Z,73.49
2022-07-29T21:14:50.323Z,75.20
2022-07-29T21:18:00.444Z,73.95
2022-07-29T21:21:06.029Z,73.44
2022-07-29T21:24:12.015Z,73.10
2022-07-29T21:27:32.965Z,72.69
2022-07-29T21:30:35.914Z,72.34
2022-07-29T21:33:39.358Z,72.70
2022-07-29T21:36:48.305Z,73.83
2022-07-29T21:40:01.447Z,74.01
2022-07-29T21:43:04.350Z,73.66
2022-07-29T21:46:07.348Z,73.02
2022-07-29T21:49:10.203Z,72.88
2022-07-29T21:52:14.422Z,74.13
2022-07-29T21:55:19.274Z,74.67
2022-07-29T21:58:22.812Z,75.48
2022-07-29T22:01:25.610Z,75.28
2022-07-29T22:04:28.919Z,74.75
2022-07-29T22:07:54.615Z,76.34
2022-07-29T22:10:56.110Z,77.10
2022-07-29T22:13:58.813Z,77.08
2022-07-29T22:17:01.773Z,77.60
2022-07-29T22:20:05.296Z,77.87
2022-07-29T22:23:09.408Z,77.52
2022-07-29T22:26:12.091Z,77.55
2022-07-29T22:29:17.583Z,77.88
2022-07-29T22:32:20.538Z,78.64
2022-07-29T22:35:23.253Z,77.46
2022-07-29T22:38:27.196Z,77.43
2022-07-29T22:41:29.782Z,76.80
2022-07-29T22:44:32.563Z,76.98
2022-07-29T22:47:39.794Z,77.27
2022-07-29T22:50:51.620Z,77.88
2022-07-29T22:53:55.697Z,77.07
2022-07-29T22:56:58.780Z,77.05
2022-07-29T23:00:02.310Z,76.49
2022-07-29T23:03:05.091Z,76.61
2022-07-29T23:06:08.051Z,77.14
2022-07-29T23:09:12.041Z,76.54
2022-07-29T23:12:14.648Z,76.03
2022-07-29T23:15:18.187Z,75.93
2022-07-29T23:18:20.987Z,76.18
2022-07-29T23:21:23.783Z,75.38
2022-07-29T23:24:27.748Z,74.44
2022-07-29T23:27:30.590Z,73.65
2022-07-29T23:30:33.502Z,73.94
2022-07-29T23:33:36.282Z,73.73
2022-07-29T23:36:38.998Z,73.92
2022-07-29T23:39:43.148Z,73.89
2022-07-29T23:42:46.081Z,76.27
2022-07-29T23:45:49.009Z,76.20
2022-07-29T23:48:51.779Z,69.96
2022-07-29T23:51:54.491Z,68.04
2022-07-29T23:55:36.531Z,66.65
2022-07-29T23:58:21.605Z,67.89
